METAR - Iceland

Last updated 18.02.2019 - at. 23:18

SIGMET for the last six hours

No SIGMET messages last 6 hours.

METAR from the last three hours

AerodromeTimeMessage
BIAR2019-02-18 23.00METAR BIAR 182300Z 32005KT 270V020 9999 FEW025 BKN038 OVC045 M02/M06 Q1009 R01/390195
BIAR2019-02-18 22.00METAR BIAR 182200Z 32007KT 280V360 9999 FEW025 BKN046 OVC052 M02/M06 Q1008 R01/390195
BIAR2019-02-18 21.00METAR BIAR 182100Z 30008KT 9999 FEW025 BKN036 OVC052 M02/M05 Q1008 R01/390195
BIEG2019-02-18 23.00METAR BIEG 182300Z 32011KT 9999 SCT040 M03/M07 Q1006 R05/790195
BIEG2019-02-18 22.00METAR BIEG 182200Z 32011KT 9999 FEW015 SCT026 BKN035 M02/M07 Q1005 R05/790195
BIEG2019-02-18 21.00METAR BIEG 182100Z 16003KT 9999 FEW015 BKN030 M02/M04 Q1005 R05/790195
BIKF2019-02-18 23.00METAR BIKF 182300Z 07012KT 9999 FEW036 BKN170 M00/M05 Q1002
BIKF2019-02-18 22.30METAR BIKF 182230Z 07010KT CAVOK M01/M05 Q1002
BIKF2019-02-18 22.00METAR BIKF 182200Z 07012KT CAVOK M00/M05 Q1002
BIKF2019-02-18 21.30METAR BIKF 182130Z 06013KT CAVOK M01/M06 Q1002
BIKF2019-02-18 21.00METAR BIKF 182100Z 06012KT CAVOK M00/M06 Q1002
BIKF2019-02-18 20.30METAR BIKF 182030Z 07007KT CAVOK M03/M06 Q1002
BIRK2019-02-18 23.00METAR BIRK 182300Z 07016KT 9999 FEW044 BKN230 00/M08 Q1002
BIRK2019-02-18 22.00METAR BIRK 182200Z 08017KT CAVOK M01/M07 Q1002
BIRK2019-02-18 21.00METAR BIRK 182100Z 06006KT CAVOK M02/M08 Q1002





Other related web sites


This website is built with Eplica CMS